首页
METAR-TAF:

METAR-TAF

机场 :

科纳克里国际机场

科納克里, 几内亚

纬度: 09-34N, 经度: 013-37W, 海拔: 26米

当前天气观测

该预报发布于37分钟前的18:00 UTC
风速8节,风向西转西南
温度 27°C
湿度 84%
气压 1013 hPa
能见度10公里或以上
多云层高于1500英尺
少量云层高于2000英尺, 塔状积云.
多云层高于11000英尺

METAR: GUCY 181800Z 25008KT 9999 BKN015 FEW020TCU BKN110 27/24 Q1013 NOSIG

时间: 18:37 (18:37 UTC)

预报

该预报发布于1小时和37分钟前的17:00 UTC
预报有效从18日的 18点(UTC)到 19日的 24点(UTC)
风速6节,风向西
能见度10公里或以上
散云层高于1500英尺
多云层高于11000英尺
短暂存在
从 18日的 21点(UTC)到 19日的 03点(UTC)
风速10节,风向东转东南
能見度: 6000
多云层高于1300英尺
少量云层高于2300英尺, 积雨云.
多云层高于10000英尺
雷暴, 雨
成为
从 19日的 09点(UTC)到 19日的 13点(UTC)
风速10节,风向东转东北
能見度: 5000
多云层高于1300英尺
少量云层高于2000英尺, 积雨云.
阴天层高于10000英尺
雷暴, 小雨

TAF: GUCY 181700Z 1818/1924 26006KT 9999 SCT015 BKN110 TEMPO 1821/1903 12010KT 6000 TSRA BKN013 FEW023CB BKN100 BECMG 1909/1913 06010KT 5000 -TSRA BKN013 FEW020CB OVC100

超过4000个机场的气象观测和天气预报(METAR&TAF报告)。

可查询的气象台以黄色和红色小点在地图上表示。

将鼠标移到小点上方,可查看气象台名称。

然后点击查看天气观测和预报。

如需切换地图:点击带黑十字的绿色按钮放大地图;点击带横线的绿色按钮缩小地图;或者点击绿色箭头查看邻近地区的地图。


METAR-TAF: